createdAt,value
2023-10-10T00:00:24.972Z,14.09
2023-10-10T00:02:52.585Z,14.12
2023-10-10T00:05:20.097Z,14.08
2023-10-10T00:07:47.870Z,14.08
2023-10-10T00:10:14.558Z,14.12
2023-10-10T00:12:41.116Z,14.04
2023-10-10T00:15:13.755Z,14.00
2023-10-10T00:17:42.118Z,14.02
2023-10-10T00:20:18.102Z,14.04
2023-10-10T00:22:48.663Z,14.02
2023-10-10T00:25:25.152Z,13.98
2023-10-10T00:27:57.673Z,14.02
2023-10-10T00:30:24.149Z,14.00
2023-10-10T00:32:51.975Z,13.94
2023-10-10T00:35:19.086Z,14.01
2023-10-10T00:37:46.320Z,14.02
2023-10-10T00:40:18.785Z,14.02
2023-10-10T00:42:45.182Z,14.02
2023-10-10T00:45:13.748Z,14.08
2023-10-10T00:47:50.650Z,14.04
2023-10-10T00:50:26.179Z,14.03
2023-10-10T00:52:54.474Z,14.05
2023-10-10T00:55:28.832Z,14.09
2023-10-10T00:58:00.157Z,14.11
2023-10-10T01:00:30.565Z,14.11
2023-10-10T01:03:07.956Z,14.15
2023-10-10T01:05:53.287Z,14.09
2023-10-10T01:08:20.831Z,14.11
2023-10-10T01:10:50.912Z,14.09
2023-10-10T01:13:18.396Z,14.03
2023-10-10T01:15:44.838Z,14.01
2023-10-10T01:18:14.992Z,13.99
2023-10-10T01:20:47.877Z,14.04
2023-10-10T01:23:20.034Z,14.01
2023-10-10T01:25:48.659Z,14.00
2023-10-10T01:28:24.967Z,13.97
2023-10-10T01:30:58.876Z,14.00
2023-10-10T01:33:48.503Z,13.99
2023-10-10T01:36:30.833Z,13.90
2023-10-10T01:38:57.682Z,13.90
2023-10-10T01:41:25.785Z,13.86
2023-10-10T01:43:55.180Z,13.82
2023-10-10T01:46:30.961Z,13.82
2023-10-10T01:48:58.338Z,13.88
2023-10-10T01:51:34.351Z,13.82
2023-10-10T01:54:04.996Z,13.83
2023-10-10T01:56:31.464Z,13.83
2023-10-10T01:58:57.881Z,13.82
2023-10-10T02:01:28.428Z,13.79
2023-10-10T02:03:55.213Z,13.85
2023-10-10T02:06:29.482Z,13.94
2023-10-10T02:09:13.309Z,13.95
2023-10-10T02:11:50.755Z,13.87
2023-10-10T02:14:20.050Z,13.88
2023-10-10T02:16:49.518Z,13.90
2023-10-10T02:19:26.100Z,13.90
2023-10-10T02:22:04.686Z,13.88
2023-10-10T02:24:31.116Z,13.84
2023-10-10T02:26:57.874Z,13.89
2023-10-10T02:29:30.325Z,13.89
2023-10-10T02:32:10.222Z,13.90
2023-10-10T02:34:37.712Z,13.97
2023-10-10T02:37:19.534Z,13.89
2023-10-10T02:39:57.486Z,13.92
2023-10-10T02:42:24.820Z,13.95
2023-10-10T02:44:58.486Z,14.02
2023-10-10T02:47:32.415Z,13.99
2023-10-10T02:50:13.728Z,13.93
2023-10-10T02:52:40.405Z,13.96
2023-10-10T02:55:15.277Z,13.95
2023-10-10T02:57:42.738Z,13.97
2023-10-10T03:00:38.559Z,14.01
2023-10-10T03:03:05.392Z,14.04
2023-10-10T03:05:41.419Z,14.01
2023-10-10T03:08:19.093Z,13.97
2023-10-10T03:10:55.603Z,13.92
2023-10-10T03:13:29.968Z,13.94
2023-10-10T03:15:57.591Z,13.96
2023-10-10T03:18:31.404Z,13.92
2023-10-10T03:21:13.340Z,13.88
2023-10-10T03:23:54.275Z,13.92
2023-10-10T03:26:36.621Z,13.96
2023-10-10T03:29:11.281Z,14.03
2023-10-10T03:31:43.395Z,14.01
2023-10-10T03:34:20.814Z,14.05
2023-10-10T03:37:05.666Z,14.04
2023-10-10T03:39:50.861Z,14.01
2023-10-10T03:42:35.728Z,14.03
2023-10-10T03:45:20.518Z,14.04
2023-10-10T03:48:05.390Z,14.01
2023-10-10T03:50:50.548Z,14.01
2023-10-10T03:53:35.654Z,13.96
2023-10-10T03:56:22.906Z,13.94
2023-10-10T03:59:08.327Z,13.83
2023-10-10T04:01:53.676Z,13.82
2023-10-10T04:04:38.511Z,13.85
2023-10-10T04:07:23.404Z,13.92
2023-10-10T04:10:08.298Z,13.87
2023-10-10T04:12:53.187Z,13.89
2023-10-10T04:15:37.928Z,13.87
2023-10-10T04:18:23.186Z,13.88
2023-10-10T04:21:08.023Z,13.84
2023-10-10T04:23:52.992Z,13.89
2023-10-10T04:26:37.757Z,13.85
2023-10-10T04:29:22.816Z,13.85
2023-10-10T04:32:07.845Z,13.86
2023-10-10T04:34:52.800Z,13.85
2023-10-10T04:37:37.704Z,13.91
2023-10-10T04:40:23.136Z,13.90
2023-10-10T04:43:08.036Z,13.91
2023-10-10T04:45:52.826Z,13.90
2023-10-10T04:48:37.734Z,13.88
2023-10-10T04:51:22.584Z,13.93
2023-10-10T04:54:07.717Z,13.93
2023-10-10T04:57:00.283Z,14.00
2023-10-10T04:59:45.330Z,13.93
2023-10-10T05:02:30.158Z,13.97
2023-10-10T05:05:15.533Z,13.99
2023-10-10T05:08:00.438Z,13.95
2023-10-10T05:10:45.358Z,13.93
2023-10-10T05:13:30.219Z,13.92
2023-10-10T05:16:21.576Z,13.89
2023-10-10T05:19:06.510Z,13.96
2023-10-10T05:21:51.405Z,13.96
2023-10-10T05:24:22.110Z,13.89
2023-10-10T05:26:48.688Z,13.85
2023-10-10T05:29:20.546Z,13.74
2023-10-10T05:31:48.498Z,13.81
2023-10-10T05:34:17.775Z,13.93
2023-10-10T05:36:45.977Z,13.87
2023-10-10T05:39:18.793Z,13.88
2023-10-10T05:41:45.819Z,13.73
2023-10-10T05:44:15.948Z,13.72
2023-10-10T05:46:42.555Z,13.76
2023-10-10T05:49:09.333Z,13.72
2023-10-10T05:51:36.364Z,13.71
2023-10-10T05:54:02.840Z,13.74
2023-10-10T05:56:31.158Z,13.82
2023-10-10T05:58:57.909Z,13.72
2023-10-10T06:01:24.949Z,13.70
2023-10-10T06:06:19.616Z,13.76
2023-10-10T06:08:46.616Z,13.77
2023-10-10T06:11:15.715Z,13.74
2023-10-10T06:13:45.014Z,13.80
2023-10-10T06:16:14.675Z,13.78
2023-10-10T06:18:46.243Z,13.87
2023-10-10T06:21:13.743Z,13.81
2023-10-10T06:23:43.177Z,13.83
2023-10-10T06:26:10.319Z,13.81
2023-10-10T06:28:37.411Z,13.81
2023-10-10T06:31:04.483Z,13.83
2023-10-10T06:33:31.651Z,13.88
2023-10-10T06:36:24.580Z,13.88
2023-10-10T06:39:07.239Z,13.91
2023-10-10T06:41:37.714Z,13.94
2023-10-10T06:44:14.914Z,13.96
2023-10-10T06:46:42.556Z,13.95
2023-10-10T06:49:12.985Z,13.98
2023-10-10T06:51:42.394Z,13.95
2023-10-10T06:54:21.240Z,14.00
2023-10-10T06:57:09.033Z,13.95
2023-10-10T06:59:36.614Z,13.92
2023-10-10T07:02:15.243Z,13.90
2023-10-10T07:04:42.085Z,13.98
2023-10-10T07:07:10.443Z,14.13
2023-10-10T07:09:43.428Z,14.10
2023-10-10T07:12:14.994Z,14.11
2023-10-10T07:14:55.184Z,14.31
2023-10-10T07:17:28.191Z,14.30
2023-10-10T07:20:03.772Z,14.19
2023-10-10T07:22:35.147Z,14.06
2023-10-10T07:25:09.660Z,14.11
2023-10-10T07:27:40.946Z,14.00
2023-10-10T07:30:14.920Z,14.11
2023-10-10T07:32:44.009Z,14.16
2023-10-10T07:35:16.061Z,14.23
2023-10-10T07:37:46.753Z,14.22
2023-10-10T07:40:17.638Z,14.20
2023-10-10T07:42:51.486Z,14.25
2023-10-10T07:45:27.719Z,14.13
2023-10-10T07:48:00.317Z,14.14
2023-10-10T07:50:28.213Z,14.16
2023-10-10T07:52:55.307Z,14.13
2023-10-10T07:55:23.732Z,14.14
2023-10-10T07:58:08.242Z,14.20
2023-10-10T08:00:38.933Z,14.28
2023-10-10T08:03:08.482Z,14.30
2023-10-10T08:05:35.133Z,14.45
2023-10-10T08:08:06.525Z,14.51
2023-10-10T08:10:44.472Z,14.64
2023-10-10T08:13:15.375Z,14.50
2023-10-10T08:15:57.484Z,14.51
2023-10-10T08:18:43.666Z,14.61
2023-10-10T08:21:12.233Z,14.91
2023-10-10T08:23:44.166Z,14.89
2023-10-10T08:26:19.315Z,14.81
2023-10-10T08:28:46.831Z,14.88
2023-10-10T08:31:16.322Z,15.16
2023-10-10T08:33:46.174Z,15.56
2023-10-10T08:36:30.839Z,15.67
2023-10-10T08:38:59.257Z,15.72
2023-10-10T08:41:31.153Z,15.74
2023-10-10T08:44:02.677Z,15.66
2023-10-10T08:46:31.943Z,15.51
2023-10-10T08:49:00.538Z,15.23
2023-10-10T08:51:34.906Z,15.15
2023-10-10T08:54:11.721Z,15.11
2023-10-10T08:56:42.011Z,15.11
2023-10-10T08:59:09.867Z,15.13
2023-10-10T09:01:39.482Z,15.18
2023-10-10T09:04:07.030Z,15.31
2023-10-10T09:06:59.197Z,15.39
2023-10-10T09:09:39.141Z,15.52
2023-10-10T09:12:13.794Z,15.60
2023-10-10T09:14:51.344Z,15.55
2023-10-10T09:17:29.840Z,15.56
2023-10-10T09:19:58.279Z,15.59
2023-10-10T09:22:44.220Z,15.54
2023-10-10T09:25:22.338Z,15.52
2023-10-10T09:27:59.904Z,15.73
2023-10-10T09:30:41.914Z,15.67
2023-10-10T09:33:23.525Z,15.74
2023-10-10T09:36:00.287Z,15.47
2023-10-10T09:38:47.922Z,15.35
2023-10-10T09:41:37.915Z,15.46
2023-10-10T09:44:24.548Z,15.41
2023-10-10T09:47:03.104Z,15.49
2023-10-10T09:49:50.303Z,15.54
2023-10-10T09:52:38.776Z,15.42
2023-10-10T09:55:29.959Z,15.48
2023-10-10T09:58:09.012Z,15.61
2023-10-10T10:00:40.816Z,15.52
2023-10-10T10:03:29.019Z,15.65
2023-10-10T10:06:08.178Z,15.59
2023-10-10T10:08:45.867Z,15.57
2023-10-10T10:11:20.170Z,15.45
2023-10-10T10:14:12.533Z,15.48
2023-10-10T10:16:59.261Z,15.53
2023-10-10T10:19:29.628Z,15.63
2023-10-10T10:22:09.700Z,15.87
2023-10-10T10:24:48.184Z,15.79
2023-10-10T10:27:32.930Z,15.75
2023-10-10T10:30:19.603Z,15.66
2023-10-10T10:32:50.489Z,15.81
2023-10-10T10:35:25.183Z,15.78
2023-10-10T10:38:00.895Z,15.92
2023-10-10T10:40:40.508Z,16.01
2023-10-10T10:43:16.562Z,16.03
2023-10-10T10:45:52.248Z,15.95
2023-10-10T10:48:32.362Z,15.99
2023-10-10T10:51:07.276Z,16.18
2023-10-10T10:53:40.238Z,16.56
2023-10-10T10:56:30.245Z,16.53
2023-10-10T10:59:22.601Z,16.29
2023-10-10T11:01:56.426Z,16.60
2023-10-10T11:04:40.954Z,16.53
2023-10-10T11:07:10.962Z,16.52
2023-10-10T11:09:54.297Z,16.71
2023-10-10T11:12:32.456Z,16.94
2023-10-10T11:15:05.854Z,17.03
2023-10-10T11:17:39.278Z,17.13
2023-10-10T11:20:28.784Z,17.11
2023-10-10T11:22:56.655Z,17.07
2023-10-10T11:25:42.436Z,16.73
2023-10-10T11:28:22.984Z,16.69
2023-10-10T11:30:54.221Z,16.39
2023-10-10T11:33:47.338Z,16.51
2023-10-10T11:36:39.442Z,16.69
2023-10-10T11:39:34.951Z,16.82
2023-10-10T11:42:05.624Z,16.82
2023-10-10T11:44:34.571Z,16.85
2023-10-10T11:47:08.291Z,16.82
2023-10-10T11:49:34.879Z,16.86
2023-10-10T11:52:01.372Z,16.85
2023-10-10T11:54:29.046Z,16.95
2023-10-10T11:56:55.517Z,16.97
2023-10-10T11:59:22.421Z,16.84
2023-10-10T12:01:51.603Z,16.98
2023-10-10T12:04:33.933Z,17.06
2023-10-10T12:07:05.358Z,16.95
2023-10-10T12:09:33.177Z,17.11
2023-10-10T12:12:05.771Z,16.90
2023-10-10T12:14:33.743Z,16.85
2023-10-10T12:17:01.208Z,16.91
2023-10-10T12:19:34.288Z,16.96
2023-10-10T12:22:08.887Z,17.04
2023-10-10T12:24:36.682Z,17.06
2023-10-10T12:27:08.083Z,17.12
2023-10-10T12:29:41.469Z,16.97
2023-10-10T12:32:20.737Z,16.97
2023-10-10T12:34:48.418Z,17.10
2023-10-10T12:37:18.254Z,17.07
2023-10-10T12:39:46.031Z,17.04
2023-10-10T12:42:12.627Z,17.07
2023-10-10T12:44:39.085Z,17.06
2023-10-10T12:47:07.884Z,17.09
2023-10-10T12:49:37.898Z,16.99
2023-10-10T12:52:13.029Z,17.02
2023-10-10T12:54:39.739Z,17.08
2023-10-10T12:57:14.836Z,17.03
2023-10-10T12:59:47.192Z,16.99
2023-10-10T13:02:16.546Z,16.95
2023-10-10T13:04:47.822Z,16.97
2023-10-10T13:07:17.290Z,17.05
2023-10-10T13:09:44.601Z,17.18
2023-10-10T13:12:19.493Z,17.28
2023-10-10T13:14:51.801Z,17.43
2023-10-10T13:17:38.806Z,17.39
2023-10-10T13:20:06.269Z,17.55
2023-10-10T13:22:32.798Z,17.65
2023-10-10T13:24:59.316Z,17.73
2023-10-10T13:27:26.652Z,17.74
2023-10-10T13:29:53.238Z,17.77
2023-10-10T13:32:21.496Z,17.75
2023-10-10T13:34:48.233Z,17.84
2023-10-10T13:37:14.846Z,17.89
2023-10-10T13:39:45.059Z,17.84
2023-10-10T13:42:15.650Z,17.87
2023-10-10T13:44:43.003Z,17.85
2023-10-10T13:47:09.926Z,17.77
2023-10-10T13:49:45.233Z,17.76
2023-10-10T13:52:17.539Z,17.74
2023-10-10T13:54:44.021Z,17.84
2023-10-10T13:57:11.312Z,17.82
2023-10-10T13:59:37.967Z,17.75
2023-10-10T14:02:05.691Z,17.78
2023-10-10T14:04:46.859Z,17.76
2023-10-10T14:07:15.621Z,17.86
2023-10-10T14:09:59.687Z,17.90
2023-10-10T14:12:32.851Z,18.00
2023-10-10T14:15:00.422Z,18.03
2023-10-10T14:17:26.953Z,18.01
2023-10-10T14:19:53.612Z,17.99
2023-10-10T14:22:25.143Z,17.98
2023-10-10T14:24:53.681Z,17.94
2023-10-10T14:27:21.277Z,17.91
2023-10-10T14:29:49.085Z,17.92
2023-10-10T14:32:30.871Z,17.88
2023-10-10T14:35:01.905Z,17.85
2023-10-10T14:37:41.912Z,17.89
2023-10-10T14:40:16.821Z,17.84
2023-10-10T14:42:43.686Z,17.88
2023-10-10T14:45:10.435Z,17.82
2023-10-10T14:47:40.488Z,17.76
2023-10-10T14:50:11.832Z,17.76
2023-10-10T14:52:41.426Z,17.74
2023-10-10T14:55:25.076Z,17.69
2023-10-10T14:57:56.188Z,17.61
2023-10-10T15:00:29.301Z,17.63
2023-10-10T15:02:57.065Z,17.64
2023-10-10T15:05:27.569Z,17.61
2023-10-10T15:07:55.473Z,17.61
2023-10-10T15:10:27.415Z,17.58
2023-10-10T15:12:54.789Z,17.53
2023-10-10T15:15:23.818Z,17.49
2023-10-10T15:17:51.138Z,17.47
2023-10-10T15:20:17.733Z,17.47
2023-10-10T15:22:44.146Z,17.42
2023-10-10T15:25:11.923Z,17.35
2023-10-10T15:27:42.071Z,17.29
2023-10-10T15:30:10.108Z,17.23
2023-10-10T15:32:48.081Z,17.17
2023-10-10T15:35:16.589Z,17.10
2023-10-10T15:37:45.871Z,17.03
2023-10-10T15:40:21.701Z,16.96
2023-10-10T15:42:50.300Z,16.89
2023-10-10T15:45:22.773Z,16.83
2023-10-10T15:47:50.468Z,16.79
2023-10-10T15:50:17.943Z,16.72
2023-10-10T15:52:49.763Z,16.64
2023-10-10T15:55:20.305Z,16.63
2023-10-10T15:57:47.270Z,16.61
2023-10-10T16:00:16.766Z,16.55
2023-10-10T16:02:43.316Z,16.50
2023-10-10T16:05:09.971Z,16.43
2023-10-10T16:07:36.396Z,16.37
2023-10-10T16:10:08.945Z,16.30
2023-10-10T16:12:35.391Z,16.26
2023-10-10T16:15:01.949Z,16.21
2023-10-10T16:17:29.737Z,16.14
2023-10-10T16:19:56.755Z,16.13
2023-10-10T16:22:23.187Z,16.10
2023-10-10T16:24:53.574Z,16.10
2023-10-10T16:27:22.789Z,16.10
2023-10-10T16:29:49.358Z,16.08
2023-10-10T16:32:19.383Z,16.05
2023-10-10T16:34:46.169Z,16.04
2023-10-10T16:37:15.757Z,16.03
2023-10-10T16:39:46.790Z,16.04
2023-10-10T16:42:15.270Z,16.04
2023-10-10T16:44:41.792Z,16.01
2023-10-10T16:47:09.322Z,16.02
2023-10-10T16:49:38.429Z,16.02
2023-10-10T16:52:07.113Z,16.00
2023-10-10T16:54:34.833Z,15.98
2023-10-10T16:57:01.398Z,15.94
2023-10-10T16:59:27.954Z,15.94
2023-10-10T17:01:54.579Z,15.92
2023-10-10T17:04:21.209Z,15.89
2023-10-10T17:06:49.923Z,15.88
2023-10-10T17:09:16.860Z,15.87
2023-10-10T17:11:43.664Z,15.86
2023-10-10T17:14:13.376Z,15.80
2023-10-10T17:16:40.809Z,15.78
2023-10-10T17:19:17.011Z,15.74
2023-10-10T17:21:47.671Z,15.73
2023-10-10T17:24:20.865Z,15.72
2023-10-10T17:26:47.533Z,15.64
2023-10-10T17:29:14.284Z,15.64
2023-10-10T17:31:41.212Z,15.62
2023-10-10T17:34:07.880Z,15.59
2023-10-10T17:36:36.907Z,15.56
2023-10-10T17:39:05.141Z,15.52
2023-10-10T17:41:36.107Z,15.51
2023-10-10T17:44:10.319Z,15.49
2023-10-10T17:46:37.272Z,15.45
2023-10-10T17:49:05.916Z,15.44
2023-10-10T17:51:35.968Z,15.48
2023-10-10T17:54:03.664Z,15.48
2023-10-10T17:56:30.503Z,15.47
2023-10-10T17:58:56.978Z,15.48
2023-10-10T18:01:23.741Z,15.45
2023-10-10T18:03:55.874Z,15.44
2023-10-10T18:06:24.671Z,15.47
2023-10-10T18:08:55.599Z,15.49
2023-10-10T18:11:27.072Z,15.49
2023-10-10T18:13:53.973Z,15.50
2023-10-10T18:16:22.932Z,15.50
2023-10-10T18:18:51.361Z,15.50
2023-10-10T18:21:20.668Z,15.48
2023-10-10T18:23:47.798Z,15.48
2023-10-10T18:26:16.551Z,15.46
2023-10-10T18:28:43.524Z,15.46
2023-10-10T18:31:14.327Z,15.44
2023-10-10T18:33:42.340Z,15.43
2023-10-10T18:36:12.168Z,15.36
2023-10-10T18:38:39.411Z,15.38
2023-10-10T18:41:06.135Z,15.33
2023-10-10T18:43:33.062Z,15.30
2023-10-10T18:46:01.744Z,15.29
2023-10-10T18:48:28.917Z,15.27
2023-10-10T18:50:58.313Z,15.29
2023-10-10T18:53:27.222Z,15.30
2023-10-10T18:55:56.040Z,15.29
2023-10-10T18:58:23.743Z,15.27
2023-10-10T19:00:52.427Z,15.25
2023-10-10T19:03:19.879Z,15.23
2023-10-10T19:05:51.637Z,15.21
2023-10-10T19:08:18.954Z,15.20
2023-10-10T19:10:51.810Z,15.21
2023-10-10T19:13:18.892Z,15.23
2023-10-10T19:15:48.644Z,15.23
2023-10-10T19:18:17.045Z,15.18
2023-10-10T19:20:47.563Z,15.21
2023-10-10T19:23:15.802Z,15.22
2023-10-10T19:25:48.559Z,15.22
2023-10-10T19:28:16.890Z,15.25
2023-10-10T19:30:43.741Z,15.28
2023-10-10T19:33:10.594Z,15.33
2023-10-10T19:35:44.484Z,15.34
2023-10-10T19:38:12.201Z,15.32
2023-10-10T19:40:38.712Z,15.19
2023-10-10T19:43:05.147Z,15.15
2023-10-10T19:45:31.683Z,15.15
2023-10-10T19:48:03.772Z,15.19
2023-10-10T19:50:31.975Z,15.20
2023-10-10T19:52:58.753Z,15.17
2023-10-10T19:55:25.737Z,15.14
2023-10-10T19:57:52.185Z,15.09
2023-10-10T20:00:21.307Z,15.06
2023-10-10T20:02:48.931Z,15.09
2023-10-10T20:05:15.856Z,15.10
2023-10-10T20:07:42.352Z,15.12
2023-10-10T20:10:16.323Z,15.14
2023-10-10T20:13:06.504Z,15.15
2023-10-10T20:15:40.685Z,15.22
2023-10-10T20:18:16.330Z,15.24
2023-10-10T20:20:43.024Z,15.25
2023-10-10T20:23:10.663Z,15.29
2023-10-10T20:25:42.326Z,15.36
2023-10-10T20:28:10.279Z,15.36
2023-10-10T20:30:42.202Z,15.39
2023-10-10T20:33:15.858Z,15.39
2023-10-10T20:35:46.676Z,15.39
2023-10-10T20:38:13.692Z,15.38
2023-10-10T20:40:44.456Z,15.37
2023-10-10T20:43:11.304Z,15.34
2023-10-10T20:45:38.265Z,15.34
2023-10-10T20:48:10.715Z,15.30
2023-10-10T20:50:42.528Z,15.33
2023-10-10T20:53:09.374Z,15.33
2023-10-10T20:55:36.213Z,15.35
2023-10-10T20:58:02.793Z,15.33
2023-10-10T21:00:32.221Z,15.34
2023-10-10T21:03:02.188Z,15.34
2023-10-10T21:05:29.043Z,15.32
2023-10-10T21:07:58.138Z,15.32
2023-10-10T21:10:25.013Z,15.32
2023-10-10T21:12:51.503Z,15.40
2023-10-10T21:15:19.076Z,15.44
2023-10-10T21:17:50.027Z,15.45
2023-10-10T21:20:26.039Z,15.48
2023-10-10T21:22:53.735Z,15.51
2023-10-10T21:25:21.858Z,15.59
2023-10-10T21:27:58.491Z,15.62
2023-10-10T21:30:29.766Z,15.67
2023-10-10T21:32:57.633Z,15.70
2023-10-10T21:35:31.059Z,15.68
2023-10-10T21:37:59.805Z,15.73
2023-10-10T21:40:27.008Z,15.73
2023-10-10T21:42:54.772Z,15.79
2023-10-10T21:45:23.327Z,15.81
2023-10-10T21:47:51.884Z,15.81
2023-10-10T21:50:19.318Z,15.82
2023-10-10T21:52:47.105Z,15.81
2023-10-10T21:55:18.042Z,15.92
2023-10-10T21:57:49.728Z,15.92
2023-10-10T22:00:17.542Z,15.87
2023-10-10T22:02:49.593Z,15.81
2023-10-10T22:05:17.516Z,15.80
2023-10-10T22:07:44.854Z,15.78
2023-10-10T22:10:15.053Z,15.73
2023-10-10T22:12:44.964Z,15.82
2023-10-10T22:15:12.005Z,15.83
2023-10-10T22:17:44.177Z,15.80
2023-10-10T22:20:12.562Z,15.76
2023-10-10T22:22:40.429Z,15.75
2023-10-10T22:25:29.037Z,15.68
2023-10-10T22:27:57.660Z,15.64
2023-10-10T22:30:27.941Z,15.58
2023-10-10T22:32:55.952Z,15.50
2023-10-10T22:35:23.185Z,15.44
2023-10-10T22:37:51.708Z,15.34
2023-10-10T22:40:25.828Z,15.27
2023-10-10T22:43:05.343Z,15.22
2023-10-10T22:45:34.242Z,15.21
2023-10-10T22:48:02.370Z,15.21
2023-10-10T22:50:31.741Z,15.21
2023-10-10T22:53:00.641Z,15.27
2023-10-10T22:55:29.508Z,15.26
2023-10-10T22:57:57.587Z,15.27
2023-10-10T23:00:37.520Z,15.26
2023-10-10T23:03:06.759Z,15.23
2023-10-10T23:05:34.489Z,15.19
2023-10-10T23:08:02.646Z,15.10
2023-10-10T23:10:30.687Z,15.05
2023-10-10T23:12:57.774Z,14.98
2023-10-10T23:15:30.196Z,14.93
2023-10-10T23:18:01.933Z,14.86
2023-10-10T23:20:30.520Z,14.86
2023-10-10T23:22:59.945Z,14.86
2023-10-10T23:25:27.280Z,14.84
2023-10-10T23:27:57.697Z,14.85
2023-10-10T23:30:30.941Z,14.83
2023-10-10T23:32:58.572Z,14.80
2023-10-10T23:35:27.761Z,14.79
2023-10-10T23:38:01.721Z,14.73
2023-10-10T23:40:48.957Z,14.70
2023-10-10T23:43:25.181Z,14.65
2023-10-10T23:46:00.724Z,14.62
2023-10-10T23:48:30.568Z,14.60
2023-10-10T23:50:59.269Z,14.55
2023-10-10T23:53:25.855Z,14.51
2023-10-10T23:55:56.096Z,14.46
2023-10-10T23:58:26.057Z,14.44
